Terminal Aerodrome Forecast
Issued by NWS

Home | Current Version | Previous Version | Text Only | Print | Product List | Glossary On
Versions: 1 2 3 4 5 6 7 8 9 10 11 12 13 14 15 16 17 18 19 20 21
556
FTUS43 KMQT 231734
TAFSAW
TAF
KSAW 231734Z 2318/2418 07005KT P6SM SCT250
     FM240000 13007KT P6SM BKN200
     FM240500 17008KT 6SM -SHRA VCTS OVC050CB WS010/19030KT
     FM241200 19009KT P6SM OVC020
     FM241600 23009KT P6SM SCT030=

USA.gov is the U.S. government's official web portal to all federal, state and local government web resources and services.